Terminal Aerodrome Forecast
Issued by NWS North Platte, NE

Home | Current Version | Previous Version | Graphics & Text | Print | Product List | Glossary On
Versions: 1 2 3 4 5 6 7 8 9 10 11 12 13 14 15 16
615
FTUS43 KLBF 050520
TAFVTN
TAF
KVTN 050520Z 0506/0606 21009KT P6SM BKN120
     FM051100 24009KT P6SM BKN120
     FM051400 28010KT P6SM BKN110
     FM051700 31015G23KT P6SM BKN060
     FM060100 32011G17KT P6SM SCT100=

USA.gov is the U.S. government's official web portal to all federal, state and local government web resources and services.